sensor_id;sensor_type;location;lat;lon;timestamp;pressure;altitude;pressure_sealevel;temperature;humidity
56944;BME280;42848;42.524;12.052;2023-09-19T00:00:23;96772.25;;;21.88;100.00
56944;BME280;42848;42.524;12.052;2023-09-19T00:02:57;96767.50;;;21.92;100.00
56944;BME280;42848;42.524;12.052;2023-09-19T00:05:29;96769.50;;;21.95;100.00
56944;BME280;42848;42.524;12.052;2023-09-19T00:07:57;96758.81;;;21.97;100.00
56944;BME280;42848;42.524;12.052;2023-09-19T00:10:29;96752.50;;;21.93;100.00
56944;BME280;42848;42.524;12.052;2023-09-19T00:12:57;96754.84;;;21.83;100.00
56944;BME280;42848;42.524;12.052;2023-09-19T00:15:28;96759.59;;;21.90;100.00
56944;BME280;42848;42.524;12.052;2023-09-19T00:17:57;96751.72;;;21.96;100.00
56944;BME280;42848;42.524;12.052;2023-09-19T00:20:23;96755.66;;;21.91;100.00
56944;BME280;42848;42.524;12.052;2023-09-19T00:22:50;96753.28;;;21.93;100.00
56944;BME280;42848;42.524;12.052;2023-09-19T00:25:19;96746.97;;;21.93;100.00
56944;BME280;42848;42.524;12.052;2023-09-19T00:27:49;96756.44;;;21.81;100.00
56944;BME280;42848;42.524;12.052;2023-09-19T00:30:17;96759.19;;;21.84;100.00
56944;BME280;42848;42.524;12.052;2023-09-19T00:32:50;96755.63;;;21.84;100.00
56944;BME280;42848;42.524;12.052;2023-09-19T00:35:23;96749.72;;;21.89;100.00
56944;BME280;42848;42.524;12.052;2023-09-19T00:37:53;96749.34;;;21.76;100.00
56944;BME280;42848;42.524;12.052;2023-09-19T00:40:19;96743.41;;;21.81;100.00
56944;BME280;42848;42.524;12.052;2023-09-19T00:42:48;96748.53;;;21.83;100.00
56944;BME280;42848;42.524;12.052;2023-09-19T00:45:15;96745.38;;;21.77;100.00
56944;BME280;42848;42.524;12.052;2023-09-19T00:47:47;96746.50;;;21.55;100.00
56944;BME280;42848;42.524;12.052;2023-09-19T00:50:18;96752.44;;;21.64;100.00
56944;BME280;42848;42.524;12.052;2023-09-19T00:52:46;96741.41;;;21.64;100.00
56944;BME280;42848;42.524;12.052;2023-09-19T00:55:15;96752.44;;;21.64;100.00
56944;BME280;42848;42.524;12.052;2023-09-19T00:57:44;96745.34;;;21.67;100.00
56944;BME280;42848;42.524;12.052;2023-09-19T01:00:10;96731.94;;;21.62;100.00
56944;BME280;42848;42.524;12.052;2023-09-19T01:02:44;96729.56;;;21.71;100.00
56944;BME280;42848;42.524;12.052;2023-09-19T01:05:10;96738.25;;;21.66;100.00
56944;BME280;42848;42.524;12.052;2023-09-19T01:07:38;96739.81;;;21.63;100.00
56944;BME280;42848;42.524;12.052;2023-09-19T01:10:11;96740.59;;;21.53;100.00
56944;BME280;42848;42.524;12.052;2023-09-19T01:13:18;96736.25;;;21.66;100.00
56944;BME280;42848;42.524;12.052;2023-09-19T01:21:29;96751.59;;;21.39;100.00
56944;BME280;42848;42.524;12.052;2023-09-19T01:29:47;96733.47;;;21.48;100.00
56944;BME280;42848;42.524;12.052;2023-09-19T01:32:18;96744.09;;;21.36;100.00
56944;BME280;42848;42.524;12.052;2023-09-19T01:34:57;96744.91;;;21.47;100.00
56944;BME280;42848;42.524;12.052;2023-09-19T01:37:30;96746.50;;;21.51;100.00
56944;BME280;42848;42.524;12.052;2023-09-19T01:40:06;96736.22;;;21.45;100.00
56944;BME280;42848;42.524;12.052;2023-09-19T01:45:48;96742.97;;;21.51;100.00
56944;BME280;42848;42.524;12.052;2023-09-19T01:51:09;96754.75;;;21.34;100.00
56944;BME280;42848;42.524;12.052;2023-09-19T01:54:00;96752.28;;;21.14;100.00
56944;BME280;42848;42.524;12.052;2023-09-19T01:59:05;96749.56;;;21.28;100.00
56944;BME280;42848;42.524;12.052;2023-09-19T02:01:33;96744.47;;;21.38;100.00
56944;BME280;42848;42.524;12.052;2023-09-19T02:04:00;96751.59;;;21.32;100.00
56944;BME280;42848;42.524;12.052;2023-09-19T02:06:26;96760.94;;;21.16;100.00
56944;BME280;42848;42.524;12.052;2023-09-19T02:08:53;96758.63;;;21.25;100.00
56944;BME280;42848;42.524;12.052;2023-09-19T02:11:19;96761.84;;;21.31;100.00
56944;BME280;42848;42.524;12.052;2023-09-19T02:13:45;96764.50;;;21.20;100.00
56944;BME280;42848;42.524;12.052;2023-09-19T02:16:11;96756.59;;;21.15;100.00
56944;BME280;42848;42.524;12.052;2023-09-19T02:18:38;96759.47;;;21.33;100.00
56944;BME280;42848;42.524;12.052;2023-09-19T02:21:05;96756.81;;;20.78;100.00
56944;BME280;42848;42.524;12.052;2023-09-19T02:23:33;96746.47;;;20.64;100.00
56944;BME280;42848;42.524;12.052;2023-09-19T02:25:59;96758.84;;;20.88;100.00
56944;BME280;42848;42.524;12.052;2023-09-19T02:28:29;96758.53;;;21.04;100.00
56944;BME280;42848;42.524;12.052;2023-09-19T02:30:58;96760.94;;;21.13;100.00
56944;BME280;42848;42.524;12.052;2023-09-19T02:33:25;96752.94;;;20.93;100.00
56944;BME280;42848;42.524;12.052;2023-09-19T02:35:55;96756.91;;;20.96;100.00
56944;BME280;42848;42.524;12.052;2023-09-19T02:38:23;96764.00;;;20.97;100.00
56944;BME280;42848;42.524;12.052;2023-09-19T02:40:51;96766.06;;;21.14;100.00
56944;BME280;42848;42.524;12.052;2023-09-19T02:43:17;96774.22;;;20.89;100.00
56944;BME280;42848;42.524;12.052;2023-09-19T02:45:42;96779.91;;;21.21;100.00
56944;BME280;42848;42.524;12.052;2023-09-19T02:48:08;96776.69;;;21.09;100.00
56944;BME280;42848;42.524;12.052;2023-09-19T02:50:34;96780.97;;;20.95;100.00
56944;BME280;42848;42.524;12.052;2023-09-19T02:53:00;96779.84;;;21.11;100.00
56944;BME280;42848;42.524;12.052;2023-09-19T02:55:25;96770.38;;;21.12;100.00
56944;BME280;42848;42.524;12.052;2023-09-19T02:57:53;96762.13;;;21.19;100.00
56944;BME280;42848;42.524;12.052;2023-09-19T03:00:23;96758.19;;;21.20;100.00
56944;BME280;42848;42.524;12.052;2023-09-19T03:02:58;96762.53;;;21.17;100.00
56944;BME280;42848;42.524;12.052;2023-09-19T03:05:25;96761.25;;;20.97;100.00
56944;BME280;42848;42.524;12.052;2023-09-19T03:07:52;96749.91;;;21.13;100.00
56944;BME280;42848;42.524;12.052;2023-09-19T03:10:18;96755.94;;;20.63;100.00
56944;BME280;42848;42.524;12.052;2023-09-19T03:12:44;96752.56;;;20.33;100.00
56944;BME280;42848;42.524;12.052;2023-09-19T03:15:09;96760.28;;;20.16;100.00
56944;BME280;42848;42.524;12.052;2023-09-19T03:17:36;96758.69;;;20.60;100.00
56944;BME280;42848;42.524;12.052;2023-09-19T03:20:02;96759.19;;;20.76;100.00
56944;BME280;42848;42.524;12.052;2023-09-19T03:22:29;96747.75;;;20.78;100.00
56944;BME280;42848;42.524;12.052;2023-09-19T03:24:54;96750.56;;;20.92;100.00
56944;BME280;42848;42.524;12.052;2023-09-19T03:27:20;96735.72;;;21.14;100.00
56944;BME280;42848;42.524;12.052;2023-09-19T03:29:47;96731.25;;;20.85;100.00
56944;BME280;42848;42.524;12.052;2023-09-19T03:32:12;96737.03;;;20.65;100.00
56944;BME280;42848;42.524;12.052;2023-09-19T03:34:39;96733.88;;;20.63;100.00
56944;BME280;42848;42.524;12.052;2023-09-19T03:37:11;96732.72;;;20.71;100.00
56944;BME280;42848;42.524;12.052;2023-09-19T03:39:37;96728.34;;;20.63;100.00
56944;BME280;42848;42.524;12.052;2023-09-19T03:42:03;96735.47;;;20.68;100.00
56944;BME280;42848;42.524;12.052;2023-09-19T03:44:30;96729.09;;;20.57;100.00
56944;BME280;42848;42.524;12.052;2023-09-19T03:46:56;96728.44;;;20.78;100.00
56944;BME280;42848;42.524;12.052;2023-09-19T03:49:22;96733.91;;;20.70;100.00
56944;BME280;42848;42.524;12.052;2023-09-19T03:51:48;96732.41;;;20.84;100.00
56944;BME280;42848;42.524;12.052;2023-09-19T03:54:14;96731.16;;;20.74;100.00
56944;BME280;42848;42.524;12.052;2023-09-19T03:56:39;96736.72;;;20.78;100.00
56944;BME280;42848;42.524;12.052;2023-09-19T03:59:05;96732.38;;;20.77;100.00
56944;BME280;42848;42.524;12.052;2023-09-19T04:01:31;96734.72;;;20.74;100.00
56944;BME280;42848;42.524;12.052;2023-09-19T04:03:58;96727.22;;;20.68;100.00
56944;BME280;42848;42.524;12.052;2023-09-19T04:06:24;96722.03;;;20.59;100.00
56944;BME280;42848;42.524;12.052;2023-09-19T04:08:49;96719.56;;;20.47;100.00
56944;BME280;42848;42.524;12.052;2023-09-19T04:11:15;96723.56;;;20.57;100.00
56944;BME280;42848;42.524;12.052;2023-09-19T04:13:41;96726.00;;;20.65;100.00
56944;BME280;42848;42.524;12.052;2023-09-19T04:16:06;96729.22;;;20.78;100.00
56944;BME280;42848;42.524;12.052;2023-09-19T04:18:32;96741.38;;;20.66;100.00
56944;BME280;42848;42.524;12.052;2023-09-19T04:21:02;96722.75;;;20.49;100.00
56944;BME280;42848;42.524;12.052;2023-09-19T04:23:29;96729.84;;;20.50;100.00
56944;BME280;42848;42.524;12.052;2023-09-19T04:25:55;96725.63;;;20.70;100.00
56944;BME280;42848;42.524;12.052;2023-09-19T04:28:20;96721.66;;;20.64;100.00
56944;BME280;42848;42.524;12.052;2023-09-19T04:30:46;96730.31;;;20.59;100.00
56944;BME280;42848;42.524;12.052;2023-09-19T04:33:12;96730.50;;;20.33;100.00
56944;BME280;42848;42.524;12.052;2023-09-19T04:35:40;96731.34;;;20.40;100.00
56944;BME280;42848;42.524;12.052;2023-09-19T04:38:08;96730.66;;;20.51;100.00
56944;BME280;42848;42.524;12.052;2023-09-19T04:40:34;96728.19;;;20.42;100.00
56944;BME280;42848;42.524;12.052;2023-09-19T04:43:01;96723.34;;;20.25;100.00
56944;BME280;42848;42.524;12.052;2023-09-19T04:45:28;96722.38;;;20.54;100.00
56944;BME280;42848;42.524;12.052;2023-09-19T04:47:55;96716.53;;;20.59;100.00
56944;BME280;42848;42.524;12.052;2023-09-19T04:50:21;96718.44;;;20.55;100.00
56944;BME280;42848;42.524;12.052;2023-09-19T04:52:51;96715.19;;;20.42;100.00
56944;BME280;42848;42.524;12.052;2023-09-19T04:55:18;96718.78;;;20.47;100.00
56944;BME280;42848;42.524;12.052;2023-09-19T04:57:46;96712.19;;;20.65;100.00
56944;BME280;42848;42.524;12.052;2023-09-19T05:00:17;96718.91;;;20.64;100.00
56944;BME280;42848;42.524;12.052;2023-09-19T05:02:54;96722.84;;;20.63;100.00
56944;BME280;42848;42.524;12.052;2023-09-19T05:05:21;96715.84;;;20.80;100.00
56944;BME280;42848;42.524;12.052;2023-09-19T05:07:48;96716.56;;;20.70;100.00
56944;BME280;42848;42.524;12.052;2023-09-19T05:10:14;96723.66;;;20.67;100.00
56944;BME280;42848;42.524;12.052;2023-09-19T05:12:40;96728.00;;;20.68;100.00
56944;BME280;42848;42.524;12.052;2023-09-19T05:15:07;96726.88;;;20.80;100.00
56944;BME280;42848;42.524;12.052;2023-09-19T05:17:34;96736.38;;;20.86;100.00
56944;BME280;42848;42.524;12.052;2023-09-19T05:20:01;96733.97;;;20.81;100.00
56944;BME280;42848;42.524;12.052;2023-09-19T05:22:41;96734.75;;;20.82;100.00
56944;BME280;42848;42.524;12.052;2023-09-19T05:25:09;96736.22;;;20.65;100.00
56944;BME280;42848;42.524;12.052;2023-09-19T05:27:35;96737.56;;;20.89;100.00
56944;BME280;42848;42.524;12.052;2023-09-19T05:30:01;96738.34;;;20.86;100.00
56944;BME280;42848;42.524;12.052;2023-09-19T05:32:27;96741.50;;;20.88;100.00
56944;BME280;42848;42.524;12.052;2023-09-19T05:34:52;96742.69;;;20.87;100.00
56944;BME280;42848;42.524;12.052;2023-09-19T05:37:19;96742.72;;;20.94;100.00
56944;BME280;42848;42.524;12.052;2023-09-19T05:39:45;96750.56;;;20.92;100.00
56944;BME280;42848;42.524;12.052;2023-09-19T05:42:10;96749.81;;;20.98;100.00
56944;BME280;42848;42.524;12.052;2023-09-19T05:44:36;96756.19;;;21.10;100.00
56944;BME280;42848;42.524;12.052;2023-09-19T05:47:03;96765.63;;;21.05;100.00
56944;BME280;42848;42.524;12.052;2023-09-19T05:49:29;96765.59;;;21.01;100.00
56944;BME280;42848;42.524;12.052;2023-09-19T05:51:55;96768.00;;;21.10;100.00
56944;BME280;42848;42.524;12.052;2023-09-19T05:54:21;96771.94;;;21.09;100.00
56944;BME280;42848;42.524;12.052;2023-09-19T05:56:47;96764.09;;;21.18;100.00
56944;BME280;42848;42.524;12.052;2023-09-19T05:59:14;96765.69;;;21.19;100.00
56944;BME280;42848;42.524;12.052;2023-09-19T06:01:43;96771.28;;;21.26;100.00
56944;BME280;42848;42.524;12.052;2023-09-19T06:04:08;96762.63;;;21.35;100.00
56944;BME280;42848;42.524;12.052;2023-09-19T06:06:34;96769.75;;;21.40;100.00
56944;BME280;42848;42.524;12.052;2023-09-19T06:09:04;96770.91;;;21.39;100.00
56944;BME280;42848;42.524;12.052;2023-09-19T06:11:34;96765.81;;;21.41;100.00
56944;BME280;42848;42.524;12.052;2023-09-19T06:14:03;96768.94;;;21.39;100.00
56944;BME280;42848;42.524;12.052;2023-09-19T06:16:29;96765.81;;;21.48;100.00
56944;BME280;42848;42.524;12.052;2023-09-19T06:18:55;96772.16;;;21.55;100.00
56944;BME280;42848;42.524;12.052;2023-09-19T06:21:24;96768.59;;;21.55;100.00
56944;BME280;42848;42.524;12.052;2023-09-19T06:23:49;96769.81;;;21.61;100.00
56944;BME280;42848;42.524;12.052;2023-09-19T06:26:15;96776.16;;;21.72;100.00
56944;BME280;42848;42.524;12.052;2023-09-19T06:28:40;96780.88;;;21.68;100.00
56944;BME280;42848;42.524;12.052;2023-09-19T06:31:07;96784.84;;;21.74;100.00
56944;BME280;42848;42.524;12.052;2023-09-19T06:33:36;96781.72;;;21.90;100.00
56944;BME280;42848;42.524;12.052;2023-09-19T06:36:06;96778.56;;;21.92;100.00
56944;BME280;42848;42.524;12.052;2023-09-19T06:38:33;96785.69;;;21.96;100.00
56944;BME280;42848;42.524;12.052;2023-09-19T06:41:02;96788.84;;;21.98;100.00
56944;BME280;42848;42.524;12.052;2023-09-19T06:43:32;96790.00;;;21.90;100.00
56944;BME280;42848;42.524;12.052;2023-09-19T06:46:00;96790.41;;;22.03;100.00
56944;BME280;42848;42.524;12.052;2023-09-19T06:48:26;96802.69;;;22.09;100.00
56944;BME280;42848;42.524;12.052;2023-09-19T06:50:56;96788.88;;;22.09;100.00
56944;BME280;42848;42.524;12.052;2023-09-19T06:53:24;96790.41;;;21.96;100.00
56944;BME280;42848;42.524;12.052;2023-09-19T06:55:51;96799.94;;;22.16;100.00
56944;BME280;42848;42.524;12.052;2023-09-19T06:58:16;96785.31;;;22.12;100.00
56944;BME280;42848;42.524;12.052;2023-09-19T07:00:42;96777.81;;;22.30;100.00
56944;BME280;42848;42.524;12.052;2023-09-19T07:03:08;96778.59;;;22.31;100.00
56944;BME280;42848;42.524;12.052;2023-09-19T07:05:37;96778.59;;;22.31;100.00
56944;BME280;42848;42.524;12.052;2023-09-19T07:08:05;96788.09;;;22.33;100.00
56944;BME280;42848;42.524;12.052;2023-09-19T07:10:32;96782.56;;;22.37;100.00
56944;BME280;42848;42.524;12.052;2023-09-19T07:13:06;96791.66;;;22.37;100.00
56944;BME280;42848;42.524;12.052;2023-09-19T07:15:37;96786.50;;;22.47;100.00
56944;BME280;42848;42.524;12.052;2023-09-19T07:18:07;96791.28;;;22.50;100.00
56944;BME280;42848;42.524;12.052;2023-09-19T07:20:36;96782.97;;;22.50;100.00
56944;BME280;42848;42.524;12.052;2023-09-19T07:23:02;96783.34;;;22.55;100.00
56944;BME280;42848;42.524;12.052;2023-09-19T07:25:28;96785.31;;;22.58;100.00
56944;BME280;42848;42.524;12.052;2023-09-19T07:27:58;96796.00;;;22.70;100.00
56944;BME280;42848;42.524;12.052;2023-09-19T07:30:26;96798.34;;;22.76;100.00
56944;BME280;42848;42.524;12.052;2023-09-19T07:32:52;96804.28;;;22.88;100.00
56944;BME280;42848;42.524;12.052;2023-09-19T07:35:18;96809.41;;;22.93;100.00
56944;BME280;42848;42.524;12.052;2023-09-19T07:37:49;96802.28;;;22.99;100.00
56944;BME280;42848;42.524;12.052;2023-09-19T07:40:17;96808.22;;;22.94;100.00
56944;BME280;42848;42.524;12.052;2023-09-19T07:42:42;96806.22;;;22.95;100.00
56944;BME280;42848;42.524;12.052;2023-09-19T07:45:10;96802.22;;;23.21;100.00
56944;BME280;42848;42.524;12.052;2023-09-19T07:47:50;96804.59;;;23.26;100.00
56944;BME280;42848;42.524;12.052;2023-09-19T07:50:17;96810.94;;;23.23;100.00
56944;BME280;42848;42.524;12.052;2023-09-19T07:52:44;96811.34;;;23.11;100.00
56944;BME280;42848;42.524;12.052;2023-09-19T07:55:11;96812.47;;;23.31;100.00
56944;BME280;42848;42.524;12.052;2023-09-19T07:57:42;96827.50;;;23.30;100.00
56944;BME280;42848;42.524;12.052;2023-09-19T08:00:10;96823.53;;;23.31;100.00
56944;BME280;42848;42.524;12.052;2023-09-19T08:02:39;96825.94;;;23.29;100.00
56944;BME280;42848;42.524;12.052;2023-09-19T08:05:07;96831.47;;;23.36;100.00
56944;BME280;42848;42.524;12.052;2023-09-19T08:07:39;96828.28;;;23.41;100.00
56944;BME280;42848;42.524;12.052;2023-09-19T08:10:06;96827.47;;;23.44;100.00
56944;BME280;42848;42.524;12.052;2023-09-19T08:12:45;96826.22;;;23.56;100.00
56944;BME280;42848;42.524;12.052;2023-09-19T08:15:19;96829.06;;;23.38;100.00
56944;BME280;42848;42.524;12.052;2023-09-19T08:17:45;96828.66;;;23.50;100.00
56944;BME280;42848;42.524;12.052;2023-09-19T08:20:12;96817.53;;;23.61;100.00
56944;BME280;42848;42.524;12.052;2023-09-19T08:22:49;96816.31;;;23.59;100.00
56944;BME280;42848;42.524;12.052;2023-09-19T08:25:16;96818.59;;;23.85;100.00
56944;BME280;42848;42.524;12.052;2023-09-19T08:27:48;96819.34;;;23.96;100.00
56944;BME280;42848;42.524;12.052;2023-09-19T08:30:16;96823.22;;;24.09;100.00
56944;BME280;42848;42.524;12.052;2023-09-19T08:32:41;96818.66;;;23.78;100.00
56944;BME280;42848;42.524;12.052;2023-09-19T08:35:11;96828.03;;;23.98;100.00
56944;BME280;42848;42.524;12.052;2023-09-19T08:37:37;96819.38;;;23.86;100.00
56944;BME280;42848;42.524;12.052;2023-09-19T08:40:03;96819.78;;;23.88;100.00
56944;BME280;42848;42.524;12.052;2023-09-19T08:42:29;96826.53;;;23.83;100.00
56944;BME280;42848;42.524;12.052;2023-09-19T08:44:55;96830.03;;;23.98;100.00
56944;BME280;42848;42.524;12.052;2023-09-19T08:47:34;96831.59;;;23.95;100.00
56944;BME280;42848;42.524;12.052;2023-09-19T08:50:12;96833.63;;;23.91;100.00
56944;BME280;42848;42.524;12.052;2023-09-19T08:52:43;96833.72;;;23.73;100.00
56944;BME280;42848;42.524;12.052;2023-09-19T08:55:15;96837.22;;;23.84;100.00
56944;BME280;42848;42.524;12.052;2023-09-19T08:57:49;96835.66;;;23.76;100.00
56944;BME280;42848;42.524;12.052;2023-09-19T09:00:16;96843.13;;;23.90;100.00
56944;BME280;42848;42.524;12.052;2023-09-19T09:02:47;96839.47;;;24.07;100.00
56944;BME280;42848;42.524;12.052;2023-09-19T09:05:14;96833.56;;;24.05;100.00
56944;BME280;42848;42.524;12.052;2023-09-19T09:07:42;96847.00;;;24.03;100.00
56944;BME280;42848;42.524;12.052;2023-09-19T09:10:09;96837.50;;;24.08;100.00
56944;BME280;42848;42.524;12.052;2023-09-19T09:12:35;96836.66;;;24.15;100.00
56944;BME280;42848;42.524;12.052;2023-09-19T09:15:06;96835.16;;;23.99;100.00
56944;BME280;42848;42.524;12.052;2023-09-19T09:17:34;96831.97;;;24.01;100.00
56944;BME280;42848;42.524;12.052;2023-09-19T09:20:00;96829.47;;;24.21;100.00
56944;BME280;42848;42.524;12.052;2023-09-19T09:22:25;96829.03;;;24.33;100.00
56944;BME280;42848;42.524;12.052;2023-09-19T09:24:56;96829.91;;;24.12;100.00
56944;BME280;42848;42.524;12.052;2023-09-19T09:27:30;96817.50;;;24.38;100.00
56944;BME280;42848;42.524;12.052;2023-09-19T09:29:58;96822.94;;;24.49;100.00
56944;BME280;42848;42.524;12.052;2023-09-19T09:32:26;96822.53;;;24.50;100.00
56944;BME280;42848;42.524;12.052;2023-09-19T09:34:58;96822.94;;;24.49;100.00
56944;BME280;42848;42.524;12.052;2023-09-19T09:37:25;96825.72;;;24.49;100.00
56944;BME280;42848;42.524;12.052;2023-09-19T09:40:01;96825.25;;;24.57;100.00
56944;BME280;42848;42.524;12.052;2023-09-19T09:42:42;96816.41;;;24.73;100.00
56944;BME280;42848;42.524;12.052;2023-09-19T09:45:19;96822.63;;;24.88;100.00
56944;BME280;42848;42.524;12.052;2023-09-19T09:47:54;96813.97;;;24.79;100.00
56944;BME280;42848;42.524;12.052;2023-09-19T09:50:26;96818.66;;;24.89;100.00
56944;BME280;42848;42.524;12.052;2023-09-19T09:52:57;96808.50;;;24.72;100.00
56944;BME280;42848;42.524;12.052;2023-09-19T09:56:04;96812.25;;;24.92;100.00
56944;BME280;42848;42.524;12.052;2023-09-19T09:58:36;96807.44;;;25.00;100.00
56944;BME280;42848;42.524;12.052;2023-09-19T10:01:03;96803.09;;;25.33;100.00
56944;BME280;42848;42.524;12.052;2023-09-19T10:03:38;96797.22;;;24.89;100.00
56944;BME280;42848;42.524;12.052;2023-09-19T10:06:12;96797.59;;;25.29;100.00
56944;BME280;42848;42.524;12.052;2023-09-19T10:09:08;96799.81;;;25.45;100.00
56944;BME280;42848;42.524;12.052;2023-09-19T10:11:45;96802.31;;;25.32;100.00
56944;BME280;42848;42.524;12.052;2023-09-19T10:14:15;96810.94;;;25.41;100.00
56944;BME280;42848;42.524;12.052;2023-09-19T10:16:48;96804.56;;;25.44;100.00
56944;BME280;42848;42.524;12.052;2023-09-19T10:19:17;96815.78;;;25.37;100.00
56944;BME280;42848;42.524;12.052;2023-09-19T10:21:48;96807.97;;;25.25;100.00
56944;BME280;42848;42.524;12.052;2023-09-19T10:24:14;96813.69;;;25.11;100.00
56944;BME280;42848;42.524;12.052;2023-09-19T10:26:42;96815.59;;;25.17;100.00
56944;BME280;42848;42.524;12.052;2023-09-19T10:29:09;96811.31;;;25.09;100.00
56944;BME280;42848;42.524;12.052;2023-09-19T10:31:38;96812.81;;;25.17;100.00
56944;BME280;42848;42.524;12.052;2023-09-19T10:34:09;96804.78;;;25.27;100.00
56944;BME280;42848;42.524;12.052;2023-09-19T10:36:36;96803.22;;;25.22;100.00
56944;BME280;42848;42.524;12.052;2023-09-19T10:39:04;96803.50;;;25.35;100.00
56944;BME280;42848;42.524;12.052;2023-09-19T10:41:34;96797.38;;;25.47;100.00
56944;BME280;42848;42.524;12.052;2023-09-19T10:44:03;96803.56;;;25.62;100.00
56944;BME280;42848;42.524;12.052;2023-09-19T10:46:32;96805.13;;;25.63;100.00
56944;BME280;42848;42.524;12.052;2023-09-19T10:49:02;96793.69;;;25.57;100.00
56944;BME280;42848;42.524;12.052;2023-09-19T10:51:31;96800.31;;;25.70;100.00
56944;BME280;42848;42.524;12.052;2023-09-19T10:54:11;96796.53;;;25.50;100.00
56944;BME280;42848;42.524;12.052;2023-09-19T10:56:43;96794.75;;;25.70;100.00
56944;BME280;42848;42.524;12.052;2023-09-19T10:59:15;96782.84;;;25.66;100.00
56944;BME280;42848;42.524;12.052;2023-09-19T11:01:52;96792.34;;;25.69;100.00
56944;BME280;42848;42.524;12.052;2023-09-19T11:04:23;96785.72;;;25.59;100.00
56944;BME280;42848;42.524;12.052;2023-09-19T11:07:10;96785.06;;;25.48;100.00
56944;BME280;42848;42.524;12.052;2023-09-19T11:09:51;96775.38;;;25.60;100.00
56944;BME280;42848;42.524;12.052;2023-09-19T11:15:07;96781.34;;;25.58;100.00
56944;BME280;42848;42.524;12.052;2023-09-19T11:17:35;96787.97;;;25.71;100.00
56944;BME280;42848;42.524;12.052;2023-09-19T11:28:30;96781.22;;;25.72;100.00
56944;BME280;42848;42.524;12.052;2023-09-19T11:30:57;96781.63;;;25.67;100.00
56944;BME280;42848;42.524;12.052;2023-09-19T11:33:28;96776.50;;;25.66;100.00
56944;BME280;42848;42.524;12.052;2023-09-19T11:36:14;96777.28;;;25.66;100.00
56944;BME280;42848;42.524;12.052;2023-09-19T11:43:51;96777.50;;;25.83;100.00
56944;BME280;42848;42.524;12.052;2023-09-19T11:46:18;96773.94;;;25.78;100.00
56944;BME280;42848;42.524;12.052;2023-09-19T11:48:49;96777.41;;;25.90;100.00
56944;BME280;42848;42.524;12.052;2023-09-19T11:51:20;96779.41;;;25.86;100.00
56944;BME280;42848;42.524;12.052;2023-09-19T11:54:03;96773.66;;;26.00;100.00
56944;BME280;42848;42.524;12.052;2023-09-19T11:56:28;96773.19;;;26.05;100.00
56944;BME280;42848;42.524;12.052;2023-09-19T11:58:57;96764.47;;;26.03;100.00
56944;BME280;42848;42.524;12.052;2023-09-19T12:01:32;96767.03;;;26.17;100.00
56944;BME280;42848;42.524;12.052;2023-09-19T12:04:01;96762.09;;;26.28;100.00
56944;BME280;42848;42.524;12.052;2023-09-19T12:06:30;96760.38;;;26.11;100.00
56944;BME280;42848;42.524;12.052;2023-09-19T12:08:58;96755.50;;;26.19;100.00
56944;BME280;42848;42.524;12.052;2023-09-19T12:11:28;96747.31;;;26.08;100.00
56944;BME280;42848;42.524;12.052;2023-09-19T12:13:56;96740.69;;;26.25;100.00
56944;BME280;42848;42.524;12.052;2023-09-19T12:16:26;96744.44;;;26.39;100.00
56944;BME280;42848;42.524;12.052;2023-09-19T12:18:57;96741.56;;;26.46;100.00
56944;BME280;42848;42.524;12.052;2023-09-19T12:21:31;96739.38;;;26.57;100.00
56944;BME280;42848;42.524;12.052;2023-09-19T12:26:27;96737.56;;;26.70;100.00
56944;BME280;42848;42.524;12.052;2023-09-19T12:28:55;96736.59;;;26.57;100.00
56944;BME280;42848;42.524;12.052;2023-09-19T12:31:22;96732.22;;;26.56;100.00
56944;BME280;42848;42.524;12.052;2023-09-19T12:33:53;96734.53;;;26.61;100.00
56944;BME280;42848;42.524;12.052;2023-09-19T12:36:22;96746.78;;;26.44;100.00
56944;BME280;42848;42.524;12.052;2023-09-19T12:38:59;96733.44;;;26.55;100.00
56944;BME280;42848;42.524;12.052;2023-09-19T12:41:26;96742.16;;;26.57;100.00
56944;BME280;42848;42.524;12.052;2023-09-19T12:43:53;96743.25;;;26.63;100.00
56944;BME280;42848;42.524;12.052;2023-09-19T12:46:22;96738.66;;;26.53;100.00
56944;BME280;42848;42.524;12.052;2023-09-19T12:49:15;96741.78;;;26.55;100.00
56944;BME280;42848;42.524;12.052;2023-09-19T12:51:43;96735.72;;;26.36;100.00
56944;BME280;42848;42.524;12.052;2023-09-19T12:54:10;96733.09;;;26.53;100.00
56944;BME280;42848;42.524;12.052;2023-09-19T12:56:45;96734.53;;;26.61;100.00
56944;BME280;42848;42.524;12.052;2023-09-19T12:59:14;96739.91;;;26.48;100.00
56944;BME280;42848;42.524;12.052;2023-09-19T13:01:42;96733.31;;;26.62;100.00
56944;BME280;42848;42.524;12.052;2023-09-19T13:04:16;96732.09;;;26.63;100.00
56944;BME280;42848;42.524;12.052;2023-09-19T13:06:49;96734.88;;;26.63;100.00
56944;BME280;42848;42.524;12.052;2023-09-19T13:09:17;96729.91;;;26.74;100.00
56944;BME280;42848;42.524;12.052;2023-09-19T13:11:43;96736.81;;;26.66;100.00
56944;BME280;42848;42.524;12.052;2023-09-19T13:14:24;96737.09;;;26.52;100.00
56944;BME280;42848;42.524;12.052;2023-09-19T13:17:10;96738.47;;;26.63;100.00
56944;BME280;42848;42.524;12.052;2023-09-19T13:19:44;96728.47;;;26.66;100.00
56944;BME280;42848;42.524;12.052;2023-09-19T13:22:42;96723.84;;;26.79;100.00
56944;BME280;42848;42.524;12.052;2023-09-19T13:25:18;96733.56;;;26.71;100.00
56944;BME280;42848;42.524;12.052;2023-09-19T13:27:52;96731.28;;;26.86;100.00
56944;BME280;42848;42.524;12.052;2023-09-19T13:30:22;96729.88;;;26.98;100.00